Terminal Aerodrome Forecast
Issued by NWS

Home | Current Version | Previous Version | Text Only | Print | Product List | Glossary On
Versions: 1 2 3 4 5 6 7 8 9 10 11 12 13 14 15 16 17
000
FTUS43 KICT 262340
TAFHUT
TAF
KHUT 262340Z 2700/2724 35010KT P6SM OVC004
      TEMPO 2700/2702 3SM -FZDZ
     FM270200 35008KT 5SM -SN BR SCT004 OVC008
     FM270600 33012KT P6SM OVC008
     FM271200 33010KT P6SM OVC015
     FM271900 30010KT P6SM SCT025=

USA.gov is the U.S. government's official web portal to all federal, state and local government web resources and services.